Time;durP1;ratioP1;P1;durP2;ratioP2;P2;SDS_P1;SDS_P2;PMS_P1;PMS_P2;Temp;Humidity;BMP_temperature;BMP_pressure;BME280_temperature;BME280_humidity;BME280_pressure;Samples;Min_cycle;Max_cycle;Signal;HPM_P1;HPM_P2
2022/07/27 00:00:24;;;;;;;5.72;1.65;;;;;;;12.86;84.59;101985.97;5089072;28;20028;-69
2022/07/27 00:02:51;;;;;;;3.05;1.75;;;;;;;12.81;84.64;101986.91;5081530;28;20020;-69
2022/07/27 00:05:16;;;;;;;4.22;1.80;;;;;;;12.82;85.37;101984.28;5085074;28;20498;-69
2022/07/27 00:07:41;;;;;;;5.28;1.88;;;;;;;12.75;83.93;101974.81;5090290;28;20040;-69
2022/07/27 00:10:07;;;;;;;7.68;2.30;;;;;;;12.79;84.15;101976.50;5087962;28;20032;-69
2022/07/27 00:12:33;;;;;;;7.13;2.10;;;;;;;12.78;84.11;101974.75;5089692;28;20196;-70
2022/07/27 00:14:58;;;;;;;4.93;1.90;;;;;;;12.75;84.15;101974.81;5089664;28;20080;-70
2022/07/27 00:17:26;;;;;;;6.32;2.30;;;;;;;12.76;85.08;101976.53;5090872;28;20028;-69
2022/07/27 00:19:52;;;;;;;5.97;2.00;;;;;;;12.69;85.07;101974.91;5086613;28;20035;-69
2022/07/27 00:22:17;;;;;;;3.50;2.03;;;;;;;12.65;86.24;101973.19;5088103;28;20020;-69
2022/07/27 00:24:42;;;;;;;4.70;2.00;;;;;;;12.60;86.67;101977.63;5089822;28;20452;-69
2022/07/27 00:27:08;;;;;;;6.43;2.08;;;;;;;12.58;86.93;101980.25;5089982;28;20043;-70
2022/07/27 00:29:33;;;;;;;6.35;2.00;;;;;;;12.57;87.23;101977.69;5088614;28;20410;-69
2022/07/27 00:31:59;;;;;;;5.47;2.78;;;;;;;12.51;87.26;101983.00;5079081;28;20548;-69
2022/07/27 00:34:24;;;;;;;5.97;2.53;;;;;;;12.48;87.60;101983.88;5089298;28;20386;-69
2022/07/27 00:36:50;;;;;;;5.88;2.47;;;;;;;12.45;87.84;101977.84;5093266;28;20012;-69
2022/07/27 00:39:15;;;;;;;7.95;2.30;;;;;;;12.40;88.08;101983.13;5090238;28;20462;-69
2022/07/27 00:41:40;;;;;;;6.13;3.33;;;;;;;12.38;88.35;101977.91;5093124;28;20024;-69
2022/07/27 00:44:05;;;;;;;6.50;2.75;;;;;;;12.31;88.32;101981.50;5090965;28;20024;-69
2022/07/27 00:46:32;;;;;;;4.93;2.60;;;;;;;12.20;88.68;101967.69;5093922;28;20032;-69
2022/07/27 00:48:57;;;;;;;7.82;3.20;;;;;;;12.24;88.52;101977.22;5086759;28;20032;-69
2022/07/27 00:51:23;;;;;;;4.93;2.72;;;;;;;12.20;88.63;101978.16;5092141;28;20032;-69
2022/07/27 00:53:51;;;;;;;7.03;2.60;;;;;;;12.12;88.75;101975.63;5092638;28;20028;-69
2022/07/27 00:56:16;;;;;;;5.65;3.20;;;;;;;12.07;88.93;101976.56;5092603;28;20177;-69
2022/07/27 00:58:46;;;;;;;7.45;2.75;;;;;;;12.08;89.40;101978.28;5092460;28;20534;-69
2022/07/27 01:01:11;;;;;;;4.35;2.50;;;;;;;12.07;89.21;101981.81;5090788;28;20439;-69
2022/07/27 01:03:36;;;;;;;7.22;3.15;;;;;;;12.05;89.21;101978.31;5093239;28;20077;-69
2022/07/27 01:06:02;;;;;;;7.47;2.92;;;;;;;12.01;89.62;101981.88;5093207;28;20577;-69
2022/07/27 01:08:27;;;;;;;5.65;2.80;;;;;;;11.98;89.55;101982.75;5092104;28;20134;-69
2022/07/27 01:10:55;;;;;;;5.93;2.83;;;;;;;11.93;89.79;101985.44;5089707;28;20040;-69
2022/07/27 01:13:21;;;;;;;8.68;3.10;;;;;;;11.86;90.17;101981.13;5092742;28;20047;-69
2022/07/27 01:15:47;;;;;;;8.10;3.40;;;;;;;11.83;90.52;101972.44;5088486;28;20444;-69
2022/07/27 01:18:29;;;;;;;6.10;2.83;;;;;;;11.78;89.87;101980.34;5091911;28;20043;-69
2022/07/27 01:20:55;;;;;;;5.95;2.50;;;;;;;11.71;90.87;101974.31;5092674;28;20036;-69
2022/07/27 01:23:24;;;;;;;5.43;2.67;;;;;;;11.64;91.31;101976.97;5092675;28;20028;-69
2022/07/27 01:25:50;;;;;;;5.22;2.50;;;;;;;11.62;91.70;101979.63;5092452;28;20517;-69
2022/07/27 01:28:15;;;;;;;5.78;2.60;;;;;;;11.57;91.97;101984.00;5093580;28;20055;-69
2022/07/27 01:30:40;;;;;;;5.22;2.60;;;;;;;11.58;92.72;101982.28;5091772;28;20463;-69
2022/07/27 01:33:08;;;;;;;6.53;2.83;;;;;;;11.54;92.49;101985.78;5088108;28;20023;-70
2022/07/27 01:35:37;;;;;;;4.47;2.88;;;;;;;11.51;93.01;101988.41;5092499;28;20039;-69
2022/07/27 01:38:03;;;;;;;4.78;2.72;;;;;;;11.45;93.16;101987.59;5091928;28;20031;-69
2022/07/27 01:40:29;;;;;;;5.72;2.60;;;;;;;11.43;93.34;101984.13;5090147;28;20032;-69
2022/07/27 01:42:55;;;;;;;3.88;2.97;;;;;;;11.40;93.61;101973.72;5093170;28;20383;-69
2022/07/27 01:45:20;;;;;;;3.72;2.70;;;;;;;11.36;93.60;101971.16;5091297;28;20077;-69
2022/07/27 01:47:46;;;;;;;6.97;3.42;;;;;;;11.33;93.85;101972.03;5091417;28;20115;-69
2022/07/27 01:50:11;;;;;;;6.65;2.80;;;;;;;11.28;93.89;101973.84;5091671;28;20035;-69
2022/07/27 01:52:38;;;;;;;4.80;2.70;;;;;;;11.23;94.21;101975.59;5091023;28;20115;-69
2022/07/27 01:55:05;;;;;;;5.78;3.10;;;;;;;11.21;94.58;101970.38;5092459;28;20023;-69
2022/07/27 01:57:30;;;;;;;5.50;2.85;;;;;;;11.20;94.79;101970.41;5093131;28;20066;-69
2022/07/27 01:59:56;;;;;;;5.18;2.63;;;;;;;11.19;94.61;101968.69;5090339;28;20471;-69
2022/07/27 02:02:21;;;;;;;6.32;3.03;;;;;;;11.16;94.75;101971.31;5090140;28;20016;-69
2022/07/27 02:04:46;;;;;;;4.82;2.78;;;;;;;11.11;94.75;101967.88;5091808;28;20046;-70
2022/07/27 02:07:12;;;;;;;5.82;3.13;;;;;;;11.07;95.11;101969.63;5089019;28;20035;-69
2022/07/27 02:09:37;;;;;;;7.63;2.85;;;;;;;10.99;95.42;101958.41;5091237;28;20112;-69
2022/07/27 02:14:46;;;;;;;6.43;2.85;;;;;;;10.95;95.99;101973.22;5091558;28;20089;-69
2022/07/27 02:17:11;;;;;;;7.25;2.95;;;;;;;10.93;95.79;101974.09;5112767;28;20061;-69
2022/07/27 02:19:37;;;;;;;4.68;3.20;;;;;;;10.90;95.69;101966.28;5112320;28;20024;-69
2022/07/27 02:22:02;;;;;;;5.47;2.97;;;;;;;10.88;95.79;101966.28;5088023;28;20043;-69
2022/07/27 02:24:27;;;;;;;6.15;3.00;;;;;;;10.90;96.00;101967.16;5098505;28;20031;-69
2022/07/27 02:26:53;;;;;;;5.60;3.30;;;;;;;10.86;95.74;101960.22;5112621;28;20088;-69
2022/07/27 02:29:18;;;;;;;5.57;3.22;;;;;;;10.85;96.12;101955.88;5086961;28;20035;-69
2022/07/27 02:31:44;;;;;;;7.55;3.45;;;;;;;10.84;96.34;101963.72;5093836;28;20020;-69
2022/07/27 02:34:09;;;;;;;7.30;3.15;;;;;;;10.80;96.08;101955.06;5102654;28;20024;-69
2022/07/27 02:36:34;;;;;;;6.00;3.00;;;;;;;10.75;96.45;101956.81;5111642;28;20026;-69
2022/07/27 02:39:00;;;;;;;7.25;3.13;;;;;;;10.75;96.58;101956.81;5110032;28;20031;-69
2022/07/27 02:41:25;;;;;;;8.90;3.30;;;;;;;10.67;97.08;101956.88;5096708;28;20032;-69
2022/07/27 02:43:50;;;;;;;6.68;3.53;;;;;;;10.65;97.29;101955.13;5089363;28;20110;-69
2022/07/27 02:46:15;;;;;;;5.13;3.20;;;;;;;10.64;97.22;101953.41;5100168;28;20513;-69
2022/07/27 02:48:41;;;;;;;7.93;3.45;;;;;;;10.64;97.20;101954.28;5106705;28;20024;-69
2022/07/27 02:51:06;;;;;;;4.72;3.13;;;;;;;10.62;97.32;101958.63;5095915;28;20026;-69
2022/07/27 02:53:31;;;;;;;6.90;3.10;;;;;;;10.54;97.27;101960.44;5091458;28;20048;-69
2022/07/27 02:55:57;;;;;;;5.18;3.10;;;;;;;10.49;97.21;101954.34;5099607;28;20028;-69
2022/07/27 02:58:23;;;;;;;5.05;3.38;;;;;;;10.43;97.33;101960.50;5111547;28;20034;-69
2022/07/27 03:00:48;;;;;;;4.32;3.30;;;;;;;10.40;97.38;101957.00;5096891;28;20547;-69
2022/07/27 03:03:14;;;;;;;4.88;3.70;;;;;;;10.35;97.49;101951.81;5098780;28;20024;-69
2022/07/27 03:05:39;;;;;;;7.68;3.67;;;;;;;10.31;97.84;101956.19;5109211;28;20110;-69
2022/07/27 03:08:04;;;;;;;9.82;3.83;;;;;;;10.28;97.84;101947.53;5112054;28;20417;-69
2022/07/27 03:10:30;;;;;;;7.88;3.58;;;;;;;10.28;98.02;101956.19;5091356;28;20107;-69
2022/07/27 03:12:56;;;;;;;5.43;3.33;;;;;;;10.24;97.99;101966.63;5102347;28;20060;-69
2022/07/27 03:15:22;;;;;;;5.07;3.28;;;;;;;10.17;98.22;101957.97;5096955;28;20032;-68
2022/07/27 03:17:48;;;;;;;6.20;3.70;;;;;;;10.13;98.48;101960.56;5110786;28;20046;-69
2022/07/27 03:20:13;;;;;;;7.40;3.50;;;;;;;10.09;98.79;101970.16;5111731;28;20028;-69
2022/07/27 03:22:38;;;;;;;6.40;3.58;;;;;;;10.07;98.66;101966.66;5099512;28;20189;-69
2022/07/27 03:25:04;;;;;;;9.70;3.60;;;;;;;10.07;98.71;101966.66;5099641;28;20499;-69
2022/07/27 03:27:29;;;;;;;9.95;3.90;;;;;;;10.01;98.70;101962.38;5111694;28;20027;-69
2022/07/27 03:29:55;;;;;;;9.35;3.22;;;;;;;9.99;98.61;101961.50;5097456;28;20024;-69
2022/07/27 03:32:20;;;;;;;7.07;3.95;;;;;;;10.00;99.01;101964.97;5084870;28;20115;-69
2022/07/27 03:34:46;;;;;;;6.88;3.38;;;;;;;10.00;98.70;101958.00;5109916;28;20034;-69
2022/07/27 03:37:11;;;;;;;7.63;3.45;;;;;;;10.03;98.72;101960.59;5100547;28;20053;-69
2022/07/27 03:39:36;;;;;;;8.07;3.65;;;;;;;10.04;98.77;101959.75;5107202;28;20023;-69
2022/07/27 03:42:02;;;;;;;6.13;3.60;;;;;;;10.05;98.61;101958.88;5109173;28;20038;-69
2022/07/27 03:44:28;;;;;;;6.13;3.35;;;;;;;10.05;98.87;101965.81;5095767;28;20385;-69
2022/07/27 03:46:53;;;;;;;5.10;3.22;;;;;;;10.04;98.70;101962.34;5110665;28;20076;-69
2022/07/27 03:49:18;;;;;;;7.88;3.85;;;;;;;10.03;98.84;101963.22;5111568;28;20140;-69
2022/07/27 03:51:43;;;;;;;8.57;3.95;;;;;;;10.06;99.09;101967.53;5101683;28;20034;-69
2022/07/27 03:54:09;;;;;;;6.78;3.60;;;;;;;10.09;99.26;101967.53;5098445;28;20036;-69
2022/07/27 03:56:35;;;;;;;9.25;3.63;;;;;;;10.17;99.07;101967.50;5111351;28;20090;-69
2022/07/27 03:59:00;;;;;;;6.15;3.65;;;;;;;10.26;99.14;101970.09;5102136;28;20034;-69
2022/07/27 04:01:25;;;;;;;5.47;3.40;;;;;;;10.30;99.14;101962.28;5099661;28;20360;-69
2022/07/27 04:03:51;;;;;;;4.97;3.45;;;;;;;10.43;99.13;101967.41;5102892;28;20446;-69
2022/07/27 04:06:16;;;;;;;5.70;3.70;;;;;;;10.48;98.95;101970.88;5103491;28;20031;-69
2022/07/27 04:08:41;;;;;;;6.50;3.63;;;;;;;10.52;99.13;101970.84;5110710;28;20027;-69
2022/07/27 04:11:07;;;;;;;6.80;3.65;;;;;;;10.59;99.85;101971.69;5112496;28;20451;-69
2022/07/27 04:13:32;;;;;;;7.28;3.40;;;;;;;10.68;99.30;101973.38;5094265;28;20031;-69
2022/07/27 04:15:57;;;;;;;6.93;3.67;;;;;;;10.67;99.30;101956.00;5101135;28;20030;-69
2022/07/27 04:18:23;;;;;;;7.03;3.45;;;;;;;10.71;99.07;101968.16;5108903;28;20043;-69
2022/07/27 04:20:48;;;;;;;7.50;3.83;;;;;;;10.71;99.31;101960.31;5102003;28;20496;-69
2022/07/27 04:23:13;;;;;;;5.63;3.67;;;;;;;10.73;99.44;101969.03;5096983;28;20115;-69
2022/07/27 04:25:39;;;;;;;6.72;3.78;;;;;;;10.74;99.75;101968.13;5105630;28;20063;-69
2022/07/27 04:28:04;;;;;;;8.45;3.78;;;;;;;10.80;99.98;101965.50;5109978;28;20032;-69
2022/07/27 04:30:31;;;;;;;6.55;3.80;;;;;;;10.86;100.00;101972.41;5105571;28;20483;-69
2022/07/27 04:32:57;;;;;;;9.23;3.47;;;;;;;10.91;100.00;101970.63;5106720;28;20031;-69
2022/07/27 04:35:22;;;;;;;7.10;3.70;;;;;;;10.94;100.00;101971.47;5106319;28;20042;-69
2022/07/27 04:37:47;;;;;;;8.38;4.18;;;;;;;11.05;100.00;101967.91;5095901;28;20032;-69
2022/07/27 04:40:13;;;;;;;7.82;3.80;;;;;;;11.07;100.00;101967.03;5103371;28;20020;-69
2022/07/27 04:42:38;;;;;;;8.45;4.30;;;;;;;11.12;100.00;101972.22;5104316;28;20031;-69
2022/07/27 04:45:04;;;;;;;6.50;3.92;;;;;;;11.15;100.00;101978.28;5103340;28;20112;-69
2022/07/27 04:47:29;;;;;;;7.00;3.75;;;;;;;11.17;100.00;101973.91;5107220;28;20032;-69
2022/07/27 04:49:54;;;;;;;7.13;3.55;;;;;;;11.24;100.00;101969.50;5110610;28;20081;-69
2022/07/27 04:52:20;;;;;;;6.63;3.97;;;;;;;11.28;100.00;101975.56;5114861;28;20027;-69
2022/07/27 04:54:50;;;;;;;6.72;3.92;;;;;;;11.35;100.00;101980.75;5085021;28;20041;-69
2022/07/27 04:57:15;;;;;;;5.60;3.67;;;;;;;11.40;100.00;101983.28;5093029;28;20040;-69
2022/07/27 04:59:41;;;;;;;6.45;3.95;;;;;;;11.46;100.00;101989.31;5108110;28;20035;-69
2022/07/27 05:02:06;;;;;;;7.65;4.07;;;;;;;11.52;99.84;101990.16;5105800;28;20020;-69
2022/07/27 05:04:31;;;;;;;5.40;3.53;;;;;;;11.53;100.00;101991.88;5110276;28;20031;-69
2022/07/27 05:06:57;;;;;;;8.85;3.78;;;;;;;11.54;99.63;101991.84;5114185;28;20024;-69
2022/07/27 05:09:22;;;;;;;6.82;3.90;;;;;;;11.55;99.64;101987.53;5106899;28;20050;-69
2022/07/27 05:11:47;;;;;;;5.85;3.75;;;;;;;11.57;99.42;101997.06;5113343;27;20019;-69
2022/07/27 05:14:12;;;;;;;7.25;4.40;;;;;;;11.58;99.85;101997.94;5103651;28;20023;-69
2022/07/27 05:16:39;;;;;;;6.82;4.13;;;;;;;11.55;98.71;101996.22;5096044;28;20024;-69
2022/07/27 05:19:05;;;;;;;7.97;4.07;;;;;;;11.60;99.74;101996.16;5112393;28;20031;-69
2022/07/27 05:21:30;;;;;;;7.43;4.20;;;;;;;11.67;99.50;101990.00;5110752;28;20076;-69
2022/07/27 05:23:55;;;;;;;8.18;3.78;;;;;;;11.70;98.86;102003.03;5098403;28;20043;-69
2022/07/27 05:26:21;;;;;;;7.32;4.47;;;;;;;11.76;98.53;102012.56;5106407;28;20028;-69
2022/07/27 05:28:47;;;;;;;10.98;4.07;;;;;;;11.82;99.03;102020.34;5105055;28;20081;-69
2022/07/27 05:31:12;;;;;;;6.57;4.03;;;;;;;11.86;98.69;102016.84;5113680;28;20563;-69
2022/07/27 05:33:37;;;;;;;7.80;4.60;;;;;;;11.85;98.55;102020.34;5105311;28;20046;-69
2022/07/27 05:36:03;;;;;;;9.02;6.13;;;;;;;11.92;97.52;102015.03;5096983;28;20032;-69
2022/07/27 05:38:28;;;;;;;12.65;6.68;;;;;;;11.98;97.75;102005.41;5106072;28;20020;-69
2022/07/27 05:40:53;;;;;;;11.85;6.30;;;;;;;12.04;96.89;102010.59;5113523;28;20031;-69
2022/07/27 05:43:19;;;;;;;9.85;6.57;;;;;;;12.08;96.95;102009.66;5099901;28;20119;-69
2022/07/27 05:45:44;;;;;;;9.80;5.93;;;;;;;12.18;96.69;102009.53;5100535;28;20039;-69
2022/07/27 05:48:09;;;;;;;15.20;5.70;;;;;;;12.24;96.38;101999.91;5106725;28;20024;-69
2022/07/27 05:50:35;;;;;;;9.98;4.80;;;;;;;12.30;95.93;102010.28;5101966;28;20102;-69
2022/07/27 05:53:00;;;;;;;13.20;5.95;;;;;;;12.36;96.89;102018.03;5112844;28;20032;-69
2022/07/27 05:55:25;;;;;;;12.20;5.35;;;;;;;12.40;97.53;102018.00;5086437;28;20016;-69
2022/07/27 05:57:51;;;;;;;10.48;5.10;;;;;;;12.51;97.59;102023.09;5105594;28;20035;-69
2022/07/27 06:00:16;;;;;;;8.60;4.10;;;;;;;12.57;96.26;102019.53;5108519;28;20496;-69
2022/07/27 06:02:41;;;;;;;7.55;3.60;;;;;;;12.63;95.94;102022.06;5098944;28;20031;-68
2022/07/27 06:05:07;;;;;;;7.97;3.60;;;;;;;12.70;95.96;102021.09;5094922;28;20071;-69
2022/07/27 06:10:17;;;;;;;7.35;2.80;;;;;;;12.87;91.32;102024.34;5112857;28;20489;-69
2022/07/27 06:12:43;;;;;;;8.18;3.17;;;;;;;12.98;92.71;102018.06;5104776;28;20023;-69
2022/07/27 06:15:10;;;;;;;6.85;2.85;;;;;;;13.07;93.78;102031.03;5087998;28;20034;-69
2022/07/27 06:17:36;;;;;;;7.00;2.95;;;;;;;13.12;90.43;102027.47;5090424;28;20548;-69
2022/07/27 06:20:03;;;;;;;5.47;3.20;;;;;;;13.21;91.09;102028.19;5105943;28;20035;-69
2022/07/27 06:22:28;;;;;;;8.27;3.15;;;;;;;13.28;89.84;102020.28;5110452;28;20116;-69
2022/07/27 06:24:54;;;;;;;6.53;3.00;;;;;;;13.35;89.99;102015.81;5099636;28;20690;-69
2022/07/27 06:27:19;;;;;;;8.07;2.47;;;;;;;13.41;88.60;102013.09;5097871;28;20059;-69
2022/07/27 06:29:44;;;;;;;8.00;2.60;;;;;;;13.54;86.75;102012.00;5110845;28;20058;-69
2022/07/27 06:32:10;;;;;;;8.13;2.30;;;;;;;13.64;85.91;102019.69;5110442;28;20416;-69
2022/07/27 06:34:35;;;;;;;8.00;2.63;;;;;;;13.73;86.97;102027.38;5106105;28;20026;-69
2022/07/27 06:37:00;;;;;;;5.97;2.28;;;;;;;13.81;84.17;102018.50;5088996;28;20382;-69
2022/07/27 06:39:26;;;;;;;4.63;2.10;;;;;;;13.89;83.89;102022.72;5107254;28;20125;-69
2022/07/27 06:41:51;;;;;;;4.10;2.20;;;;;;;13.99;84.07;102019.88;5096161;27;20027;-69
2022/07/27 06:44:16;;;;;;;4.35;2.20;;;;;;;14.04;83.94;102015.44;5097780;28;20123;-69
2022/07/27 06:46:42;;;;;;;7.13;2.08;;;;;;;14.12;82.96;102020.53;5098268;28;20044;-70
2022/07/27 06:49:07;;;;;;;4.25;2.10;;;;;;;14.21;82.57;102025.59;5111729;28;20458;-70
2022/07/27 06:51:33;;;;;;;6.20;1.80;;;;;;;14.26;80.34;102021.13;5112297;28;20378;-69
2022/07/27 06:53:58;;;;;;;5.50;2.30;;;;;;;14.37;82.35;102020.06;5112504;28;20031;-69
2022/07/27 06:56:23;;;;;;;6.22;1.80;;;;;;;14.41;79.84;102030.44;5087106;28;20032;-69
2022/07/27 06:58:49;;;;;;;5.10;1.67;;;;;;;14.52;79.64;102018.00;5099478;28;20035;-69
2022/07/27 07:01:15;;;;;;;3.47;1.40;;;;;;;14.66;79.39;102020.34;5101819;28;20024;-69
2022/07/27 07:03:40;;;;;;;3.22;1.50;;;;;;;14.86;78.46;102024.28;5105929;28;20046;-70
2022/07/27 07:06:05;;;;;;;7.03;1.40;;;;;;;15.06;76.98;102023.81;5092638;28;20020;-70
2022/07/27 07:08:31;;;;;;;3.28;1.33;;;;;;;15.23;76.87;102037.41;5093836;28;20028;-70
2022/07/27 07:10:56;;;;;;;7.85;1.42;;;;;;;15.42;76.94;102035.22;5097050;28;20489;-70
2022/07/27 07:13:22;;;;;;;6.72;1.40;;;;;;;15.60;76.70;102034.75;5111884;28;20035;-70
2022/07/27 07:15:47;;;;;;;4.25;1.50;;;;;;;15.83;75.73;102030.69;5095778;28;20027;-69
2022/07/27 07:18:13;;;;;;;5.28;1.30;;;;;;;16.02;74.27;102034.56;5101258;28;20040;-69
2022/07/27 07:20:40;;;;;;;3.55;1.38;;;;;;;16.29;74.11;102029.44;5099551;28;20024;-70
2022/07/27 07:23:06;;;;;;;4.75;1.20;;;;;;;16.48;70.46;102029.75;5099722;28;20118;-69
2022/07/27 07:25:33;;;;;;;4.70;1.48;;;;;;;16.74;70.97;102028.97;5093464;28;20024;-70
2022/07/27 07:27:59;;;;;;;5.70;1.40;;;;;;;16.83;68.18;102023.47;5098456;28;20475;-70
2022/07/27 07:30:24;;;;;;;3.95;1.48;;;;;;;17.16;68.83;102036.50;5085932;28;20059;-69
2022/07/27 07:32:50;;;;;;;2.55;1.25;;;;;;;17.43;68.04;102032.97;5107347;28;20451;-70
2022/07/27 07:35:16;;;;;;;3.72;1.60;;;;;;;17.70;65.84;102035.59;5111879;28;20020;-69
2022/07/27 07:37:41;;;;;;;5.53;1.67;;;;;;;17.92;67.50;102039.25;5111514;28;20104;-70
2022/07/27 07:40:09;;;;;;;4.00;1.35;;;;;;;17.97;65.36;102032.00;5110739;28;20020;-70
2022/07/27 07:42:51;;;;;;;4.10;1.00;;;;;;;17.92;66.79;102047.16;5111655;28;20075;-70
2022/07/27 07:45:17;;;;;;;3.92;1.25;;;;;;;17.76;63.87;102040.66;5112860;28;20363;-70
2022/07/27 07:47:42;;;;;;;4.30;1.10;;;;;;;17.60;63.73;102035.03;5115752;28;20028;-70
2022/07/27 07:50:08;;;;;;;6.00;1.35;;;;;;;17.38;65.86;102039.31;5115782;28;20031;-70
2022/07/27 07:52:33;;;;;;;5.32;1.20;;;;;;;17.15;65.78;102037.41;5115219;28;20041;-70
2022/07/27 07:54:59;;;;;;;3.45;1.17;;;;;;;16.95;66.35;102041.53;5115747;28;20042;-70
2022/07/27 07:57:24;;;;;;;3.45;1.63;;;;;;;16.77;66.51;102050.84;5115480;28;20036;-69
2022/07/27 07:59:49;;;;;;;4.03;1.30;;;;;;;16.75;65.46;102043.91;5095602;28;20020;-70
2022/07/27 08:02:14;;;;;;;9.45;2.83;;;;;;;16.73;68.12;102035.16;5095476;28;20031;-70
2022/07/27 08:04:40;;;;;;;4.35;1.15;;;;;;;16.78;66.12;102049.09;5094891;28;20089;-70
2022/07/27 08:07:06;;;;;;;5.13;1.15;;;;;;;16.84;64.06;102048.91;5094375;28;20043;-70
2022/07/27 08:09:31;;;;;;;3.75;1.10;;;;;;;16.91;66.03;102049.59;5095291;28;20024;-70
2022/07/27 08:11:57;;;;;;;3.00;1.10;;;;;;;16.91;66.51;102062.75;5094693;28;20463;-70
2022/07/27 08:14:22;;;;;;;6.75;1.50;;;;;;;16.73;65.08;102067.63;5094483;28;20480;-69
2022/07/27 08:16:48;;;;;;;5.32;1.55;;;;;;;16.49;66.79;102063.09;5093066;28;20589;-69
2022/07/27 08:19:13;;;;;;;3.72;1.45;;;;;;;16.33;67.35;102068.78;5094184;28;20028;-70
2022/07/27 08:21:38;;;;;;;4.38;1.25;;;;;;;16.22;68.20;102064.69;5092242;28;20032;-69
2022/07/27 08:24:04;;;;;;;4.38;1.10;;;;;;;16.15;67.86;102064.91;5095129;28;20475;-70
2022/07/27 08:26:29;;;;;;;7.97;1.45;;;;;;;16.05;66.99;102058.13;5112581;28;20032;-70
2022/07/27 08:28:54;;;;;;;8.65;1.40;;;;;;;16.15;69.80;102061.38;5114277;28;20061;-70
2022/07/27 08:31:20;;;;;;;4.20;1.35;;;;;;;16.23;69.00;102061.19;5114471;28;20024;-70
2022/07/27 08:33:45;;;;;;;5.28;2.00;;;;;;;16.43;70.56;102048.31;5106927;28;20482;-70
2022/07/27 08:36:10;;;;;;;6.63;1.60;;;;;;;16.59;69.85;102046.09;5114048;28;20023;-69
2022/07/27 08:38:35;;;;;;;5.63;1.40;;;;;;;16.76;70.00;102051.75;5114892;28;20072;-70
2022/07/27 08:41:01;;;;;;;3.97;1.40;;;;;;;16.92;67.70;102046.03;5114813;28;20493;-69
2022/07/27 08:43:29;;;;;;;4.28;1.30;;;;;;;17.11;66.84;102041.06;5095283;28;20028;-69
2022/07/27 08:45:58;;;;;;;2.30;1.20;;;;;;;17.81;63.69;102041.38;5114746;28;20050;-70
2022/07/27 08:48:27;;;;;;;2.40;1.38;;;;;;;18.59;61.38;102037.69;5113985;28;20023;-69
2022/07/27 08:50:53;;;;;;;5.55;1.52;;;;;;;19.05;57.19;102034.13;5114497;28;20030;-70
2022/07/27 08:53:18;;;;;;;4.22;1.35;;;;;;;19.18;55.94;102039.78;5114481;28;20102;-70
2022/07/27 08:55:46;;;;;;;6.13;1.45;;;;;;;19.16;55.21;102041.63;5113375;28;20028;-70
2022/07/27 08:58:12;;;;;;;2.83;1.00;;;;;;;19.16;51.43;102044.25;5114110;28;20123;-70
2022/07/27 09:00:42;;;;;;;2.47;0.90;;;;;;;19.16;52.72;102054.84;5114669;28;20022;-70
2022/07/27 09:03:11;;;;;;;4.28;1.10;;;;;;;19.15;50.81;102051.34;5113325;28;20077;-69
2022/07/27 09:05:44;;;;;;;3.78;0.98;;;;;;;19.13;51.12;102049.69;5114441;28;20090;-70
2022/07/27 09:08:14;;;;;;;4.40;1.00;;;;;;;19.26;50.78;102053.56;5114052;28;20532;-70
2022/07/27 09:10:40;;;;;;;7.78;1.42;;;;;;;19.26;49.95;102053.56;5113521;28;20026;-70
2022/07/27 09:13:26;;;;;;;2.08;0.90;;;;;;;19.38;52.18;102060.13;5114004;28;20088;-70
2022/07/27 09:15:56;;;;;;;2.85;1.00;;;;;;;19.50;51.59;102058.75;5086877;28;20039;-70
2022/07/27 09:18:29;;;;;;;1.90;0.85;;;;;;;19.53;48.95;102058.63;5113426;28;20031;-70
2022/07/27 09:21:25;;;;;;;5.43;1.10;;;;;;;19.47;49.33;102061.53;5114125;28;20043;-70
2022/07/27 09:23:52;;;;;;;2.22;0.95;;;;;;;19.52;51.58;102063.06;5093257;27;20032;-70
2022/07/27 09:26:21;;;;;;;4.05;0.95;;;;;;;19.62;48.29;102067.06;5093945;28;20048;-70
2022/07/27 09:28:51;;;;;;;2.65;1.10;;;;;;;19.70;51.88;102058.81;5101416;28;20502;-70
2022/07/27 09:31:16;;;;;;;4.93;1.17;;;;;;;19.80;48.77;102057.50;5093376;28;20023;-70
2022/07/27 09:33:53;;;;;;;2.60;1.10;;;;;;;19.94;48.16;102066.63;5114004;28;20046;-70
2022/07/27 09:36:21;;;;;;;4.32;1.00;;;;;;;20.03;48.65;102053.00;5110769;27;20035;-70
2022/07/27 09:39:05;;;;;;;4.57;1.20;;;;;;;20.14;51.64;102063.94;5082332;28;20154;-70
2022/07/27 09:41:52;;;;;;;3.22;1.10;;;;;;;20.27;52.39;102054.56;5090762;28;20024;-70
2022/07/27 09:44:30;;;;;;;4.22;1.38;;;;;;;20.32;52.36;102049.91;5090793;28;20032;-69
2022/07/27 09:46:55;;;;;;;7.13;1.40;;;;;;;20.24;54.17;102061.75;5083906;28;20032;-70
2022/07/27 09:49:31;;;;;;;2.63;1.45;;;;;;;20.11;54.70;102066.75;5087680;28;20035;-69
2022/07/27 09:51:58;;;;;;;5.45;1.58;;;;;;;19.73;52.87;102060.47;5085592;28;20124;-69
2022/07/27 09:54:24;;;;;;;3.60;1.30;;;;;;;19.47;53.24;102058.88;5088949;28;21383;-70
2022/07/27 09:57:01;;;;;;;4.53;1.60;;;;;;;19.30;55.34;102062.22;5087038;28;20058;-70
2022/07/27 09:59:28;;;;;;;6.75;1.38;;;;;;;19.05;54.47;102051.78;5085586;28;20027;-70
2022/07/27 10:01:54;;;;;;;3.08;1.20;;;;;;;18.93;56.54;102059.28;5086117;28;20024;-70
2022/07/27 10:04:21;;;;;;;2.70;1.20;;;;;;;19.04;57.78;102058.00;5086551;28;20509;-70
2022/07/27 10:06:46;;;;;;;5.18;1.70;;;;;;;19.15;57.37;102058.41;5083726;28;20032;-70
2022/07/27 10:09:12;;;;;;;6.65;1.40;;;;;;;19.35;54.57;102065.53;5087426;28;20028;-70
2022/07/27 10:11:38;;;;;;;2.33;1.10;;;;;;;19.53;54.78;102059.50;5090181;28;20024;-70
2022/07/27 10:14:03;;;;;;;3.70;1.33;;;;;;;19.75;52.89;102048.91;5090117;28;20028;-72
2022/07/27 10:16:31;;;;;;;4.60;1.30;;;;;;;20.18;55.85;102060.25;5092383;28;20020;-72
2022/07/27 10:19:02;;;;;;;2.83;1.50;;;;;;;20.54;54.39;102048.97;5088990;28;20035;-72
2022/07/27 10:21:28;;;;;;;2.85;1.58;;;;;;;20.90;52.22;102045.53;5091086;28;20085;-72
2022/07/27 10:23:57;;;;;;;4.10;1.10;;;;;;;21.37;53.02;102051.19;5091683;28;20036;-72
2022/07/27 10:26:22;;;;;;;5.85;1.45;;;;;;;21.84;52.86;102045.25;5099522;28;20480;-72
2022/07/27 10:28:55;;;;;;;4.83;1.10;;;;;;;21.88;47.52;102045.97;5099471;28;20020;-72
2022/07/27 10:31:32;;;;;;;6.65;1.50;;;;;;;21.51;50.22;102043.38;5097237;28;20032;-73
2022/07/27 10:34:00;;;;;;;4.03;1.48;;;;;;;20.84;47.40;102035.22;5097112;28;20020;-72
2022/07/27 10:36:25;;;;;;;3.55;1.33;;;;;;;20.40;51.68;102043.38;5094503;28;20123;-72
2022/07/27 10:38:56;;;;;;;3.63;1.10;;;;;;;20.45;50.92;102039.59;5106987;28;20565;-72
2022/07/27 10:41:27;;;;;;;5.45;1.35;;;;;;;21.00;52.52;102037.03;5109281;28;20631;-73
2022/07/27 10:44:17;;;;;;;4.03;1.60;;;;;;;21.71;49.59;102031.78;5101169;28;20442;-73
2022/07/27 10:46:43;;;;;;;3.72;1.40;;;;;;;22.22;47.72;102025.63;5102393;28;20058;-73
2022/07/27 10:49:26;;;;;;;4.53;1.40;;;;;;;22.66;46.39;102029.38;5094436;28;20035;-73
2022/07/27 10:51:52;;;;;;;3.33;1.20;;;;;;;22.92;42.77;102024.38;5098337;28;20028;-73
2022/07/27 10:54:26;;;;;;;3.30;1.30;;;;;;;22.83;43.96;102024.91;5089957;28;20524;-72
2022/07/27 10:56:56;;;;;;;6.25;1.92;;;;;;;22.47;44.52;102027.81;5107707;28;20474;-73
2022/07/27 10:59:42;;;;;;;4.50;1.55;;;;;;;22.24;46.89;102024.59;5092779;28;20413;-72
2022/07/27 11:02:10;;;;;;;6.22;1.50;;;;;;;21.71;46.89;102025.59;5072593;28;20044;-73
2022/07/27 11:05:03;;;;;;;5.53;1.40;;;;;;;21.31;47.88;102019.63;5090594;28;20040;-73
2022/07/27 11:07:28;;;;;;;7.70;1.30;;;;;;;20.88;48.39;102018.22;5095010;28;20035;-73
2022/07/27 11:09:53;;;;;;;5.55;1.27;;;;;;;20.68;46.44;102022.69;5095935;28;20028;-72
2022/07/27 11:12:20;;;;;;;2.88;1.27;;;;;;;20.54;47.47;102022.47;5093677;28;20016;-73
2022/07/27 11:14:50;;;;;;;6.68;1.50;;;;;;;20.49;48.86;102029.72;5103833;28;20497;-72
2022/07/27 11:17:18;;;;;;;2.78;1.10;;;;;;;20.43;48.09;102028.22;5100549;28;20040;-73
2022/07/27 11:19:44;;;;;;;4.45;1.38;;;;;;;20.53;48.89;102028.69;5102763;28;20016;-72
2022/07/27 11:22:09;;;;;;;5.85;1.48;;;;;;;20.71;47.47;102029.63;5100137;28;20073;-72
2022/07/27 11:24:35;;;;;;;2.75;1.38;;;;;;;20.90;47.73;102017.22;5083604;28;20050;-73
2022/07/27 11:27:02;;;;;;;4.38;1.35;;;;;;;21.28;49.57;102025.06;5088958;28;20031;-73